Time;durP1;ratioP1;P1;durP2;ratioP2;P2;SDS_P1;SDS_P2;PMS_P1;PMS_P2;Temp;Humidity;BMP_temperature;BMP_pressure;BME280_temperature;BME280_humidity;BME280_pressure;Samples;Min_cycle;Max_cycle;Signal;HPM_P1;HPM_P2
2022/08/07 00:01:09;;;;;;;;;;;16.10;99.90;;;;;;5087196;28;19911;-65
2022/08/07 00:03:35;;;;;;;;;;;16.10;99.90;;;;;;5092014;28;19920;-66
2022/08/07 00:06:01;;;;;;;;;;;16.20;99.90;;;;;;5083922;28;19946;-66
2022/08/07 00:08:27;;;;;;;;;;;16.40;99.90;;;;;;5086373;28;19969;-65
2022/08/07 00:10:52;;;;;;;;;;;16.60;99.90;;;;;;5084794;28;20332;-66
2022/08/07 00:13:19;;;;;;;;;;;16.60;99.90;;;;;;5064910;28;19912;-65
2022/08/07 00:15:45;;;;;;;;;;;16.70;99.90;;;;;;5090197;28;19916;-66
2022/08/07 00:18:10;;;;;;;;;;;16.70;99.90;;;;;;5086877;28;19997;-64
2022/08/07 00:20:36;;;;;;;;;;;16.70;99.90;;;;;;5093673;28;19920;-65
2022/08/07 00:23:05;;;;;;;;;;;16.70;99.90;;;;;;5087659;28;20418;-66
2022/08/07 00:25:30;;;;;;;;;;;16.50;99.90;;;;;;5090261;28;19943;-64
2022/08/07 00:27:56;;;;;;;;;;;16.50;99.90;;;;;;5088734;28;20025;-66
2022/08/07 00:30:23;;;;;;;;;;;16.30;99.90;;;;;;5055452;28;20308;-66
2022/08/07 00:32:49;;;;;;;;;;;16.30;99.90;;;;;;5085559;28;19923;-65
2022/08/07 00:35:16;;;;;;;;;;;16.40;99.90;;;;;;5085679;28;20277;-65
2022/08/07 00:37:42;;;;;;;;;;;16.20;99.90;;;;;;5089772;28;19924;-66
2022/08/07 00:40:07;;;;;;;;;;;16.20;99.90;;;;;;5067502;28;19920;-65
2022/08/07 00:42:33;;;;;;;;;;;16.30;99.90;;;;;;5086504;28;19965;-66
2022/08/07 00:44:59;;;;;;;;;;;16.30;99.90;;;;;;5089367;28;20298;-65
2022/08/07 00:47:24;;;;;;;;;;;16.20;99.90;;;;;;5085003;28;20127;-65
2022/08/07 00:49:50;;;;;;;;;;;16.10;99.90;;;;;;5065961;28;19923;-66
2022/08/07 00:52:15;;;;;;;;;;;15.90;99.90;;;;;;5075394;28;19920;-65
2022/08/07 00:54:41;;;;;;;;;;;15.70;99.90;;;;;;5087660;28;19912;-66
2022/08/07 00:57:08;;;;;;;;;;;15.60;99.90;;;;;;5065331;28;20242;-66
2022/08/07 00:59:35;;;;;;;;;;;15.60;99.90;;;;;;5084631;28;19920;-65
2022/08/07 01:02:01;;;;;;;;;;;15.50;99.90;;;;;;5086253;28;19920;-65
2022/08/07 01:04:27;;;;;;;;;;;15.50;99.90;;;;;;5075251;28;19912;-65
2022/08/07 01:06:54;;;;;;;;;;;15.70;99.90;;;;;;5086714;28;19920;-65
2022/08/07 01:09:20;;;;;;;;;;;15.70;99.90;;;;;;5090223;28;19965;-66
2022/08/07 01:11:46;;;;;;;;;;;15.70;99.90;;;;;;5085817;28;19916;-65
2022/08/07 01:14:11;;;;;;;;;;;15.60;99.90;;;;;;5087842;28;19993;-65
2022/08/07 01:16:37;;;;;;;;;;;15.50;99.90;;;;;;5086526;28;19912;-65
2022/08/07 01:19:03;;;;;;;;;;;15.40;99.90;;;;;;5088434;28;19916;-66
2022/08/07 01:21:29;;;;;;;;;;;15.30;99.90;;;;;;5090157;28;19928;-65
2022/08/07 01:23:55;;;;;;;;;;;15.20;99.90;;;;;;5088388;28;19916;-66
2022/08/07 01:26:22;;;;;;;;;;;15.10;99.90;;;;;;5091491;28;20405;-66
2022/08/07 01:28:48;;;;;;;;;;;15.10;99.90;;;;;;5079271;28;20031;-65
2022/08/07 01:31:18;;;;;;;;;;;15.10;99.90;;;;;;5090852;28;19912;-66
2022/08/07 01:33:47;;;;;;;;;;;15.00;99.90;;;;;;5086628;28;20271;-65
2022/08/07 01:36:13;;;;;;;;;;;15.00;99.90;;;;;;5084711;28;20019;-65
2022/08/07 01:38:38;;;;;;;;;;;14.90;99.90;;;;;;5082945;28;19924;-67
2022/08/07 01:41:05;;;;;;;;;;;14.80;99.90;;;;;;5092045;28;19984;-65
2022/08/07 01:43:31;;;;;;;;;;;14.80;99.90;;;;;;5086483;28;20714;-65
2022/08/07 01:45:57;;;;;;;;;;;14.80;99.90;;;;;;5086955;28;20366;-66
2022/08/07 01:48:23;;;;;;;;;;;14.70;99.90;;;;;;5092117;28;20001;-66
2022/08/07 01:50:52;;;;;;;;;;;14.70;99.90;;;;;;5091565;28;20036;-65
2022/08/07 01:53:18;;;;;;;;;;;14.70;99.90;;;;;;5093690;28;19916;-65
2022/08/07 01:55:45;;;;;;;;;;;14.60;99.90;;;;;;5092013;28;20361;-66
2022/08/07 01:58:14;;;;;;;;;;;14.70;99.90;;;;;;5076565;28;20006;-67
2022/08/07 02:00:41;;;;;;;;;;;14.90;99.90;;;;;;5098257;28;20061;-66
2022/08/07 02:03:09;;;;;;;;;;;15.10;99.90;;;;;;5094821;28;20015;-67
2022/08/07 02:05:36;;;;;;;;;;;15.20;99.90;;;;;;5094669;28;19967;-65
2022/08/07 02:08:04;;;;;;;;;;;15.20;99.90;;;;;;5092363;28;20382;-65
2022/08/07 02:10:31;;;;;;;;;;;15.10;99.90;;;;;;5090063;28;20011;-65
2022/08/07 02:12:58;;;;;;;;;;;15.10;99.90;;;;;;5090373;28;20113;-64
2022/08/07 02:15:25;;;;;;;;;;;15.10;99.90;;;;;;5072289;28;20374;-65
2022/08/07 02:17:52;;;;;;;;;;;15.20;99.90;;;;;;5090631;28;19928;-65
2022/08/07 02:20:19;;;;;;;;;;;15.20;99.90;;;;;;5083434;28;19920;-65
2022/08/07 02:22:45;;;;;;;;;;;15.20;99.90;;;;;;5091273;28;19919;-66
2022/08/07 02:25:12;;;;;;;;;;;15.20;99.90;;;;;;5072419;28;20089;-65
2022/08/07 02:27:38;;;;;;;;;;;15.20;99.90;;;;;;5078523;28;19916;-65
2022/08/07 02:30:04;;;;;;;;;;;15.10;99.90;;;;;;5092214;28;19912;-65
2022/08/07 02:32:31;;;;;;;;;;;15.10;99.90;;;;;;5092372;28;19912;-65
2022/08/07 02:34:57;;;;;;;;;;;15.20;99.90;;;;;;5092739;28;19919;-66
2022/08/07 02:37:23;;;;;;;;;;;15.10;99.90;;;;;;5080078;28;19942;-65
2022/08/07 02:39:51;;;;;;;;;;;15.10;99.90;;;;;;5087272;28;19920;-66
2022/08/07 02:42:17;;;;;;;;;;;15.10;99.90;;;;;;5093814;28;19919;-65
2022/08/07 02:44:43;;;;;;;;;;;15.20;99.90;;;;;;5090180;28;19951;-65
2022/08/07 02:47:10;;;;;;;;;;;15.20;99.90;;;;;;5088407;28;19912;-66
2022/08/07 02:49:36;;;;;;;;;;;15.20;99.90;;;;;;5092641;28;19920;-66
2022/08/07 02:52:03;;;;;;;;;;;15.10;99.90;;;;;;5092268;28;19934;-65
2022/08/07 02:54:30;;;;;;;;;;;15.10;99.90;;;;;;5096777;28;20495;-65
2022/08/07 02:56:58;;;;;;;;;;;15.20;99.90;;;;;;5087240;28;19973;-65
2022/08/07 02:59:25;;;;;;;;;;;15.10;99.90;;;;;;5082335;28;20338;-65
2022/08/07 03:01:51;;;;;;;;;;;15.10;99.90;;;;;;5094735;28;20355;-65
2022/08/07 03:04:17;;;;;;;;;;;15.00;99.90;;;;;;5091916;28;19943;-65
2022/08/07 03:06:43;;;;;;;;;;;15.00;99.90;;;;;;5089606;28;19920;-65
2022/08/07 03:09:09;;;;;;;;;;;14.90;99.90;;;;;;5089372;28;19916;-65
2022/08/07 03:11:35;;;;;;;;;;;14.90;99.90;;;;;;5090425;28;19951;-65
2022/08/07 03:14:01;;;;;;;;;;;14.90;99.90;;;;;;5090508;28;19912;-64
2022/08/07 03:16:28;;;;;;;;;;;14.70;99.90;;;;;;5081011;28;19927;-65
2022/08/07 03:18:54;;;;;;;;;;;14.70;99.90;;;;;;5082362;28;19920;-66
2022/08/07 03:21:19;;;;;;;;;;;14.70;99.90;;;;;;5086035;28;19926;-65
2022/08/07 03:23:46;;;;;;;;;;;14.70;99.90;;;;;;5090720;28;20460;-66
2022/08/07 03:26:17;;;;;;;;;;;14.70;99.90;;;;;;5086686;28;20332;-65
2022/08/07 03:28:43;;;;;;;;;;;14.60;99.90;;;;;;5090741;28;19920;-65
2022/08/07 03:31:18;;;;;;;;;;;14.60;99.90;;;;;;5084954;28;19920;-65
2022/08/07 03:33:48;;;;;;;;;;;14.60;99.90;;;;;;5091942;28;20010;-65
2022/08/07 03:36:15;;;;;;;;;;;14.60;99.90;;;;;;5077889;28;19947;-65
2022/08/07 03:38:41;;;;;;;;;;;14.50;99.90;;;;;;5086333;28;19924;-66
2022/08/07 03:41:09;;;;;;;;;;;14.30;99.90;;;;;;5078660;28;20280;-65
2022/08/07 03:43:35;;;;;;;;;;;14.10;99.90;;;;;;5083221;28;19912;-65
2022/08/07 03:46:02;;;;;;;;;;;13.90;99.90;;;;;;5077705;28;19920;-65
2022/08/07 03:48:29;;;;;;;;;;;13.70;99.90;;;;;;5081503;28;19963;-66
2022/08/07 03:50:55;;;;;;;;;;;13.70;99.90;;;;;;5083573;28;19935;-65
2022/08/07 03:53:21;;;;;;;;;;;13.60;99.90;;;;;;5083515;28;21227;-65
2022/08/07 03:55:48;;;;;;;;;;;13.40;99.90;;;;;;5089385;28;19918;-65
2022/08/07 03:58:13;;;;;;;;;;;13.10;99.90;;;;;;5088635;28;19927;-65
2022/08/07 04:00:40;;;;;;;;;;;13.00;99.90;;;;;;5086074;28;19916;-65
2022/08/07 04:03:06;;;;;;;;;;;12.90;99.90;;;;;;5089364;28;19920;-65
2022/08/07 04:05:35;;;;;;;;;;;12.80;99.90;;;;;;5084412;28;19920;-65
2022/08/07 04:08:01;;;;;;;;;;;12.70;99.90;;;;;;5079452;28;19912;-65
2022/08/07 04:10:26;;;;;;;;;;;12.90;99.90;;;;;;5071981;28;19946;-65
2022/08/07 04:12:52;;;;;;;;;;;12.80;99.90;;;;;;5084011;28;21185;-65
2022/08/07 04:15:19;;;;;;;;;;;12.90;99.90;;;;;;5089108;28;19955;-65
2022/08/07 04:17:44;;;;;;;;;;;12.80;99.90;;;;;;5088594;28;21178;-66
2022/08/07 04:20:11;;;;;;;;;;;12.80;99.90;;;;;;5090375;28;20124;-66
2022/08/07 04:22:38;;;;;;;;;;;12.70;99.90;;;;;;5068578;28;19912;-65
2022/08/07 04:25:05;;;;;;;;;;;12.60;99.90;;;;;;5083151;28;20003;-65
2022/08/07 04:27:30;;;;;;;;;;;12.50;99.90;;;;;;5094514;28;19922;-65
2022/08/07 04:29:56;;;;;;;;;;;12.30;99.90;;;;;;5084610;28;19920;-66
2022/08/07 04:32:22;;;;;;;;;;;12.30;99.90;;;;;;5077163;28;20078;-65
2022/08/07 04:34:49;;;;;;;;;;;12.40;99.90;;;;;;5081221;28;19920;-65
2022/08/07 04:37:15;;;;;;;;;;;12.40;99.90;;;;;;5087816;28;20023;-65
2022/08/07 04:39:41;;;;;;;;;;;12.30;99.90;;;;;;5068493;28;19924;-65
2022/08/07 04:42:06;;;;;;;;;;;12.30;99.90;;;;;;5087871;28;19935;-66
2022/08/07 04:44:32;;;;;;;;;;;12.30;99.90;;;;;;5093275;28;20420;-66
2022/08/07 04:47:00;;;;;;;;;;;12.30;99.90;;;;;;5090643;28;19916;-64
2022/08/07 04:49:35;;;;;;;;;;;12.20;99.90;;;;;;5093120;28;19920;-66
2022/08/07 04:52:12;;;;;;;;;;;12.10;99.90;;;;;;5086571;28;20250;-65
2022/08/07 04:54:46;;;;;;;;;;;12.20;99.90;;;;;;5088189;28;20408;-65
2022/08/07 04:57:12;;;;;;;;;;;12.10;99.90;;;;;;5072425;28;20369;-65
2022/08/07 04:59:58;;;;;;;;;;;12.20;99.90;;;;;;5082735;28;20002;-65
2022/08/07 05:02:29;;;;;;;;;;;12.20;99.90;;;;;;5085220;28;20272;-66
2022/08/07 05:05:01;;;;;;;;;;;12.20;99.90;;;;;;5091578;28;20328;-65
2022/08/07 05:07:39;;;;;;;;;;;12.20;99.90;;;;;;5092608;28;19919;-65
2022/08/07 05:10:11;;;;;;;;;;;12.20;99.90;;;;;;5091488;28;20388;-65
2022/08/07 05:12:58;;;;;;;;;;;12.30;99.90;;;;;;5091977;28;19912;-67
2022/08/07 05:15:25;;;;;;;;;;;12.20;99.90;;;;;;5093604;28;19915;-65
2022/08/07 05:17:54;;;;;;;;;;;12.20;99.90;;;;;;5093253;28;19920;-67
2022/08/07 05:20:23;;;;;;;;;;;12.20;99.90;;;;;;5092348;28;19920;-65
2022/08/07 05:22:51;;;;;;;;;;;12.20;99.90;;;;;;5073195;28;20002;-64
2022/08/07 05:25:18;;;;;;;;;;;12.20;99.90;;;;;;5083214;28;19919;-65
2022/08/07 05:27:45;;;;;;;;;;;12.20;99.90;;;;;;5086943;28;19912;-65
2022/08/07 05:30:10;;;;;;;;;;;12.20;99.90;;;;;;5084660;28;19955;-66
2022/08/07 05:32:37;;;;;;;;;;;12.30;99.90;;;;;;5081270;28;19942;-64
2022/08/07 05:35:03;;;;;;;;;;;12.30;99.90;;;;;;5055886;28;19916;-66
2022/08/07 05:37:29;;;;;;;;;;;12.30;99.90;;;;;;5093627;28;19928;-65
2022/08/07 05:39:55;;;;;;;;;;;12.30;99.90;;;;;;5090035;28;20328;-66
2022/08/07 05:42:21;;;;;;;;;;;12.40;99.90;;;;;;5091205;28;19919;-66
2022/08/07 05:44:47;;;;;;;;;;;12.50;99.90;;;;;;5088449;28;19913;-66
2022/08/07 05:47:14;;;;;;;;;;;12.60;99.90;;;;;;5089371;28;20432;-65
2022/08/07 05:49:40;;;;;;;;;;;12.70;99.90;;;;;;5089781;28;19996;-65
2022/08/07 05:52:07;;;;;;;;;;;12.90;99.90;;;;;;5089513;28;19977;-65
2022/08/07 05:54:33;;;;;;;;;;;13.00;99.90;;;;;;5068337;28;19920;-66
2022/08/07 05:57:00;;;;;;;;;;;13.00;99.90;;;;;;5081328;28;20675;-65
2022/08/07 05:59:26;;;;;;;;;;;13.10;99.90;;;;;;5084276;28;19923;-65
2022/08/07 06:01:52;;;;;;;;;;;13.20;99.90;;;;;;5085143;28;19919;-66
2022/08/07 06:04:19;;;;;;;;;;;13.40;99.90;;;;;;5088663;28;19923;-65
2022/08/07 06:06:45;;;;;;;;;;;13.60;99.90;;;;;;5087057;28;20015;-65
2022/08/07 06:09:10;;;;;;;;;;;13.70;99.90;;;;;;5091884;28;20006;-66
2022/08/07 06:11:36;;;;;;;;;;;13.90;99.90;;;;;;5088236;28;20134;-66
2022/08/07 06:14:03;;;;;;;;;;;13.90;99.90;;;;;;5074326;28;19969;-65
2022/08/07 06:16:32;;;;;;;;;;;13.90;99.90;;;;;;5089626;28;19999;-67
2022/08/07 06:19:01;;;;;;;;;;;14.00;99.90;;;;;;5084132;28;19920;-65
2022/08/07 06:21:27;;;;;;;;;;;14.20;99.90;;;;;;5094902;28;19915;-66
2022/08/07 06:23:53;;;;;;;;;;;14.40;99.90;;;;;;5093002;28;19934;-66
2022/08/07 06:26:19;;;;;;;;;;;14.50;99.90;;;;;;5072348;28;19912;-65
2022/08/07 06:28:52;;;;;;;;;;;14.60;99.90;;;;;;5089517;28;20335;-65
2022/08/07 06:31:17;;;;;;;;;;;14.60;99.90;;;;;;5088726;28;19937;-66
2022/08/07 06:33:44;;;;;;;;;;;14.80;99.90;;;;;;5086621;28;19916;-65
2022/08/07 06:36:10;;;;;;;;;;;14.80;99.90;;;;;;5085851;28;19938;-65
2022/08/07 06:38:35;;;;;;;;;;;15.00;99.90;;;;;;5064734;28;19924;-65
2022/08/07 06:41:04;;;;;;;;;;;15.00;99.90;;;;;;5084715;28;19916;-65
2022/08/07 06:43:34;;;;;;;;;;;15.10;99.90;;;;;;5080055;28;19995;-66
2022/08/07 06:46:01;;;;;;;;;;;15.20;99.90;;;;;;5092443;28;19977;-68
2022/08/07 06:48:26;;;;;;;;;;;15.20;99.90;;;;;;5094556;28;19948;-65
2022/08/07 06:50:53;;;;;;;;;;;15.20;99.90;;;;;;5096439;28;20495;-65
2022/08/07 06:53:20;;;;;;;;;;;15.30;99.90;;;;;;5092519;28;19920;-65
2022/08/07 06:55:46;;;;;;;;;;;15.40;99.90;;;;;;5095511;28;20755;-66
2022/08/07 06:58:12;;;;;;;;;;;15.50;99.90;;;;;;5083502;28;19920;-66
2022/08/07 07:00:40;;;;;;;;;;;15.70;99.90;;;;;;5090342;28;20312;-66
2022/08/07 07:03:06;;;;;;;;;;;15.80;99.90;;;;;;5088775;28;19992;-66
2022/08/07 07:05:31;;;;;;;;;;;15.90;99.90;;;;;;5089882;28;19911;-66
2022/08/07 07:07:57;;;;;;;;;;;16.00;99.90;;;;;;5089134;28;19935;-66
2022/08/07 07:10:32;;;;;;;;;;;16.10;99.90;;;;;;5086707;28;19916;-66
2022/08/07 07:13:02;;;;;;;;;;;16.10;99.90;;;;;;5088554;28;20455;-65
2022/08/07 07:15:32;;;;;;;;;;;16.20;99.90;;;;;;5088823;28;19968;-67
2022/08/07 07:18:13;;;;;;;;;;;16.20;99.90;;;;;;5086018;28;19941;-66
2022/08/07 07:20:42;;;;;;;;;;;16.20;99.90;;;;;;5085713;28;19916;-67
2022/08/07 07:23:08;;;;;;;;;;;16.30;99.90;;;;;;5092230;28;19998;-66
2022/08/07 07:25:36;;;;;;;;;;;16.50;99.90;;;;;;5089178;28;20057;-65
2022/08/07 07:28:06;;;;;;;;;;;16.60;99.90;;;;;;5069439;28;19916;-65
2022/08/07 07:30:34;;;;;;;;;;;16.70;99.90;;;;;;5082660;28;19951;-66
2022/08/07 07:33:00;;;;;;;;;;;16.70;99.90;;;;;;5083712;28;20487;-65
2022/08/07 07:35:26;;;;;;;;;;;16.70;99.90;;;;;;5089712;28;19912;-65
2022/08/07 07:37:52;;;;;;;;;;;16.80;99.90;;;;;;5089088;28;19919;-66
2022/08/07 07:40:19;;;;;;;;;;;16.80;99.90;;;;;;5072789;28;20063;-68
2022/08/07 07:42:46;;;;;;;;;;;16.90;99.90;;;;;;5070677;28;20022;-66
2022/08/07 07:45:13;;;;;;;;;;;16.90;99.90;;;;;;5084539;28;19916;-66
2022/08/07 07:47:40;;;;;;;;;;;16.90;99.90;;;;;;5091404;28;19916;-67
2022/08/07 07:50:06;;;;;;;;;;;17.00;99.90;;;;;;5087991;28;19958;-66
2022/08/07 07:52:32;;;;;;;;;;;17.00;99.90;;;;;;5081227;28;19965;-65
2022/08/07 07:54:58;;;;;;;;;;;17.20;99.90;;;;;;5084143;28;19961;-66
2022/08/07 07:57:24;;;;;;;;;;;17.30;99.90;;;;;;5085102;28;19915;-67
2022/08/07 07:59:50;;;;;;;;;;;17.40;99.90;;;;;;5088746;28;20006;-67
2022/08/07 08:02:18;;;;;;;;;;;17.50;99.90;;;;;;5082420;28;19934;-67
2022/08/07 08:04:44;;;;;;;;;;;17.50;99.90;;;;;;5074919;28;19926;-67
2022/08/07 08:07:10;;;;;;;;;;;17.60;99.90;;;;;;5089913;28;20007;-68
2022/08/07 08:09:37;;;;;;;;;;;17.70;99.90;;;;;;5088637;28;20056;-67
2022/08/07 08:12:03;;;;;;;;;;;17.70;99.90;;;;;;5081830;28;19912;-67
2022/08/07 08:14:32;;;;;;;;;;;17.80;99.90;;;;;;5088261;28;19911;-68
2022/08/07 08:16:59;;;;;;;;;;;18.00;99.90;;;;;;5080577;28;19934;-68
2022/08/07 08:19:26;;;;;;;;;;;18.10;99.90;;;;;;5088878;28;19965;-67
2022/08/07 08:27:25;;;;;;;;;;;18.60;99.90;;;;;;5091501;28;20035;-66
2022/08/07 08:29:53;;;;;;;;;;;18.80;99.90;;;;;;5094633;28;19959;-66
2022/08/07 08:32:23;;;;;;;;;;;18.90;99.90;;;;;;5093706;28;19920;-67
2022/08/07 08:34:49;;;;;;;;;;;18.90;99.70;;;;;;5094480;28;20008;-67
2022/08/07 08:37:16;;;;;;;;;;;19.10;98.40;;;;;;5090838;28;20015;-66
2022/08/07 08:39:43;;;;;;;;;;;19.20;97.10;;;;;;5090575;28;19928;-67
2022/08/07 08:42:24;;;;;;;;;;;19.30;96.30;;;;;;5089781;28;19920;-67
2022/08/07 08:45:02;;;;;;;;;;;19.50;94.90;;;;;;5071626;28;19955;-68
2022/08/07 08:47:31;;;;;;;;;;;19.50;94.50;;;;;;5068728;28;19911;-67
2022/08/07 08:50:13;;;;;;;;;;;19.50;92.40;;;;;;5097762;28;19918;-67
2022/08/07 08:52:42;;;;;;;;;;;19.50;92.00;;;;;;5091203;28;20010;-67
2022/08/07 08:55:15;;;;;;;;;;;19.70;90.60;;;;;;5088963;28;20381;-66
2022/08/07 08:58:04;;;;;;;;;;;20.00;88.30;;;;;;5090993;28;19919;-66
2022/08/07 09:00:34;;;;;;;;;;;19.90;86.90;;;;;;5055392;28;19912;-67
2022/08/07 09:03:29;;;;;;;;;;;20.00;81.80;;;;;;5072854;28;19931;-67
2022/08/07 09:05:58;;;;;;;;;;;19.90;82.20;;;;;;5077509;28;20006;-67
2022/08/07 09:08:29;;;;;;;;;;;20.20;80.60;;;;;;5090136;28;19919;-68
2022/08/07 09:11:16;;;;;;;;;;;20.30;78.70;;;;;;5093175;28;20586;-67
2022/08/07 09:13:50;;;;;;;;;;;20.40;75.40;;;;;;5072484;28;19920;-68
2022/08/07 09:16:27;;;;;;;;;;;20.40;74.50;;;;;;5096044;28;19974;-67
2022/08/07 09:19:10;;;;;;;;;;;20.50;74.70;;;;;;5077489;28;19931;-66
2022/08/07 09:21:42;;;;;;;;;;;20.50;73.80;;;;;;5097786;28;19952;-67
2022/08/07 09:24:34;;;;;;;;;;;20.70;73.50;;;;;;5086566;28;19926;-68
2022/08/07 09:27:03;;;;;;;;;;;20.80;72.90;;;;;;5082307;28;19923;-66
2022/08/07 09:29:28;;;;;;;;;;;20.90;71.70;;;;;;5089023;28;20251;-68
2022/08/07 09:32:10;;;;;;;;;;;20.90;72.20;;;;;;5087767;28;19920;-67
2022/08/07 09:34:56;;;;;;;;;;;20.80;72.10;;;;;;5052460;28;20397;-67
2022/08/07 09:37:34;;;;;;;;;;;20.80;71.50;;;;;;5086295;28;19919;-67
2022/08/07 09:40:20;;;;;;;;;;;20.70;71.10;;;;;;5090215;28;20318;-67
2022/08/07 09:42:55;;;;;;;;;;;20.60;71.70;;;;;;5051852;28;19999;-68
2022/08/07 09:45:33;;;;;;;;;;;20.60;71.00;;;;;;5092911;28;19962;-67
2022/08/07 09:48:05;;;;;;;;;;;20.60;71.70;;;;;;5087384;28;19912;-67
2022/08/07 09:50:51;;;;;;;;;;;20.70;71.30;;;;;;5085741;28;21364;-67
2022/08/07 09:53:21;;;;;;;;;;;21.00;70.00;;;;;;5078274;28;19980;-68
2022/08/07 09:55:55;;;;;;;;;;;21.20;69.80;;;;;;5078076;28;20001;-68
2022/08/07 09:58:21;;;;;;;;;;;21.40;76.20;;;;;;5095316;28;19920;-68
2022/08/07 10:00:56;;;;;;;;;;;21.50;68.80;;;;;;5101295;28;19923;-67
2022/08/07 10:03:45;;;;;;;;;;;21.50;66.60;;;;;;5092659;28;19908;-67
2022/08/07 10:06:14;;;;;;;;;;;21.50;69.30;;;;;;5076640;28;20292;-68
2022/08/07 10:08:47;;;;;;;;;;;21.40;65.40;;;;;;5102982;28;19912;-68
2022/08/07 10:11:21;;;;;;;;;;;21.50;66.00;;;;;;5073523;28;19912;-68
2022/08/07 10:14:10;;;;;;;;;;;21.40;67.00;;;;;;5100178;28;19919;-68
2022/08/07 10:17:02;;;;;;;;;;;21.40;70.30;;;;;;5086426;28;19919;-68
2022/08/07 10:19:53;;;;;;;;;;;21.50;70.60;;;;;;5067357;28;19924;-67
2022/08/07 10:22:19;;;;;;;;;;;21.80;68.00;;;;;;5106000;28;19963;-67
2022/08/07 10:25:03;;;;;;;;;;;22.20;67.20;;;;;;5092961;28;19912;-68
2022/08/07 10:27:29;;;;;;;;;;;22.30;64.70;;;;;;5094101;28;19922;-66
2022/08/07 10:30:05;;;;;;;;;;;22.30;64.80;;;;;;5089914;28;19920;-67
2022/08/07 10:32:50;;;;;;;;;;;22.30;64.80;;;;;;5096557;28;19928;-68
2022/08/07 10:35:20;;;;;;;;;;;22.30;66.00;;;;;;5095093;28;19912;-66
2022/08/07 10:37:52;;;;;;;;;;;22.40;64.70;;;;;;5092995;28;19924;-67
2022/08/07 10:40:53;;;;;;;;;;;22.50;64.40;;;;;;5072178;28;20384;-67
2022/08/07 10:43:36;;;;;;;;;;;22.30;66.90;;;;;;5000706;28;19952;-67
2022/08/07 10:46:24;;;;;;;;;;;22.30;64.20;;;;;;5084328;28;19912;-68
2022/08/07 10:49:11;;;;;;;;;;;22.40;63.40;;;;;;5062898;28;19912;-68
2022/08/07 10:51:50;;;;;;;;;;;22.40;63.10;;;;;;5102696;28;20663;-68
2022/08/07 10:54:30;;;;;;;;;;;22.40;66.50;;;;;;5100492;28;19968;-67
2022/08/07 10:57:09;;;;;;;;;;;22.70;66.50;;;;;;5090615;28;19919;-68
2022/08/07 10:59:38;;;;;;;;;;;22.80;65.20;;;;;;5093781;28;19916;-69
2022/08/07 11:02:26;;;;;;;;;;;22.90;65.00;;;;;;5093957;28;19962;-70
2022/08/07 11:05:04;;;;;;;;;;;23.00;63.20;;;;;;5090022;28;20039;-68
2022/08/07 11:07:48;;;;;;;;;;;23.10;63.70;;;;;;5094504;28;19912;-69
2022/08/07 11:10:33;;;;;;;;;;;23.10;62.10;;;;;;5087035;28;19919;-68
2022/08/07 11:13:17;;;;;;;;;;;23.20;63.30;;;;;;5100523;28;20325;-67
2022/08/07 11:15:45;;;;;;;;;;;23.20;64.30;;;;;;5095985;28;19968;-67
2022/08/07 11:18:16;;;;;;;;;;;23.10;62.90;;;;;;5094626;28;20007;-67
2022/08/07 11:20:55;;;;;;;;;;;22.90;63.30;;;;;;5096096;28;19920;-67
2022/08/07 11:23:39;;;;;;;;;;;22.90;62.40;;;;;;5088396;28;19923;-66
2022/08/07 11:26:15;;;;;;;;;;;23.00;61.20;;;;;;5085546;28;19977;-66
2022/08/07 11:28:50;;;;;;;;;;;22.80;60.40;;;;;;5096802;28;19915;-67
2022/08/07 11:31:22;;;;;;;;;;;22.70;61.20;;;;;;5094245;28;19915;-67
2022/08/07 11:33:59;;;;;;;;;;;22.80;64.50;;;;;;5070619;28;20260;-68
2022/08/07 11:36:25;;;;;;;;;;;22.90;63.40;;;;;;5072955;28;19958;-67
2022/08/07 11:38:59;;;;;;;;;;;23.10;59.90;;;;;;5058381;28;19928;-66
2022/08/07 11:41:28;;;;;;;;;;;23.40;61.70;;;;;;5051237;28;22653;-66
2022/08/07 11:44:07;;;;;;;;;;;23.30;60.40;;;;;;5050693;28;20605;-68
2022/08/07 11:46:37;;;;;;;;;;;23.40;59.40;;;;;;5050871;28;19928;-66
2022/08/07 11:49:12;;;;;;;;;;;23.30;61.40;;;;;;5051509;28;20171;-67
2022/08/07 11:51:39;;;;;;;;;;;23.30;59.10;;;;;;5050239;28;20158;-67
2022/08/07 11:54:10;;;;;;;;;;;23.10;58.20;;;;;;5052542;28;20014;-68
2022/08/07 11:56:55;;;;;;;;;;;23.10;57.60;;;;;;5065198;28;19912;-67
2022/08/07 11:59:40;;;;;;;;;;;23.10;58.40;;;;;;5052426;28;20425;-68
2022/08/07 12:02:23;;;;;;;;;;;23.30;58.00;;;;;;5071065;28;19913;-68
2022/08/07 12:05:06;;;;;;;;;;;23.40;55.10;;;;;;5065987;28;19919;-68
2022/08/07 12:07:34;;;;;;;;;;;23.30;55.60;;;;;;5065250;28;19942;-67
2022/08/07 12:10:07;;;;;;;;;;;23.30;55.20;;;;;;5070381;28;19916;-67
2022/08/07 12:12:35;;;;;;;;;;;23.40;54.60;;;;;;5069119;28;19912;-68
2022/08/07 12:15:10;;;;;;;;;;;23.60;56.20;;;;;;5059862;28;20290;-67
2022/08/07 12:17:38;;;;;;;;;;;23.70;54.50;;;;;;5074158;28;19930;-66
2022/08/07 12:20:19;;;;;;;;;;;23.60;53.10;;;;;;5074710;28;20259;-66
2022/08/07 12:23:07;;;;;;;;;;;23.40;52.60;;;;;;5070072;28;19987;-67
2022/08/07 12:25:54;;;;;;;;;;;23.40;54.50;;;;;;5071325;28;19942;-68
2022/08/07 12:28:29;;;;;;;;;;;23.60;52.30;;;;;;5053056;28;19951;-66
2022/08/07 12:30:56;;;;;;;;;;;23.50;51.80;;;;;;5071885;28;20026;-69
2022/08/07 12:33:24;;;;;;;;;;;23.50;51.50;;;;;;5067672;28;20837;-68
2022/08/07 12:35:50;;;;;;;;;;;23.60;51.20;;;;;;5050033;28;19917;-68
2022/08/07 12:38:16;;;;;;;;;;;23.70;49.60;;;;;;5074110;28;19920;-71
2022/08/07 12:40:43;;;;;;;;;;;23.80;48.80;;;;;;5099853;28;19938;-69
2022/08/07 12:43:09;;;;;;;;;;;23.70;48.10;;;;;;5100640;28;19912;-70
2022/08/07 12:45:40;;;;;;;;;;;23.80;50.20;;;;;;5092596;28;20374;-69
2022/08/07 12:48:23;;;;;;;;;;;23.80;51.10;;;;;;5099781;28;20324;-69
2022/08/07 12:50:54;;;;;;;;;;;23.80;49.20;;;;;;5094272;28;19950;-69
2022/08/07 12:53:27;;;;;;;;;;;23.90;49.70;;;;;;5098377;28;20357;-68
2022/08/07 12:55:59;;;;;;;;;;;24.10;49.20;;;;;;5104638;28;19912;-69
2022/08/07 12:58:27;;;;;;;;;;;24.10;48.30;;;;;;5094117;28;20263;-69
2022/08/07 13:01:07;;;;;;;;;;;24.00;48.50;;;;;;5107024;28;19987;-69
2022/08/07 13:03:52;;;;;;;;;;;24.10;47.00;;;;;;5093454;28;19919;-68
2022/08/07 13:06:20;;;;;;;;;;;24.10;48.40;;;;;;5096938;28;20389;-69
2022/08/07 13:08:55;;;;;;;;;;;24.10;47.90;;;;;;5102044;28;19934;-68
2022/08/07 13:11:20;;;;;;;;;;;24.30;46.90;;;;;;5096791;28;19966;-67
2022/08/07 13:14:05;;;;;;;;;;;24.20;46.80;;;;;;5080963;28;19955;-67
2022/08/07 13:16:36;;;;;;;;;;;24.20;45.30;;;;;;5098451;28;19918;-68
2022/08/07 13:19:02;;;;;;;;;;;24.30;46.70;;;;;;5095719;28;20019;-67
2022/08/07 13:21:30;;;;;;;;;;;24.40;47.00;;;;;;5097350;28;20003;-68
2022/08/07 13:24:14;;;;;;;;;;;24.50;47.30;;;;;;5099636;28;19912;-68
2022/08/07 13:26:49;;;;;;;;;;;24.50;47.70;;;;;;5092869;28;20334;-69
2022/08/07 13:29:26;;;;;;;;;;;24.40;48.20;;;;;;5093484;28;19912;-68
2022/08/07 13:32:08;;;;;;;;;;;24.50;48.00;;;;;;5091265;28;19931;-69
2022/08/07 13:34:37;;;;;;;;;;;24.70;49.00;;;;;;5086917;28;19911;-69
2022/08/07 13:37:07;;;;;;;;;;;24.70;48.60;;;;;;5079709;28;20369;-69
2022/08/07 13:39:32;;;;;;;;;;;24.70;49.20;;;;;;5093922;28;20414;-68
2022/08/07 13:41:59;;;;;;;;;;;24.70;49.60;;;;;;5099054;28;19912;-68
2022/08/07 13:44:28;;;;;;;;;;;24.80;50.10;;;;;;5101546;28;19916;-68
2022/08/07 13:46:57;;;;;;;;;;;24.80;50.30;;;;;;5092875;28;19916;-67
2022/08/07 13:49:23;;;;;;;;;;;24.70;50.20;;;;;;5094635;28;19920;-67
2022/08/07 13:51:49;;;;;;;;;;;24.60;50.40;;;;;;5096243;28;19912;-67
2022/08/07 13:54:16;;;;;;;;;;;24.70;49.50;;;;;;5093118;28;19969;-67
2022/08/07 13:56:44;;;;;;;;;;;24.90;48.80;;;;;;5093511;28;19941;-68
2022/08/07 13:59:11;;;;;;;;;;;25.00;48.80;;;;;;5089343;28;20374;-68
2022/08/07 14:01:42;;;;;;;;;;;25.20;47.90;;;;;;5091727;28;19912;-68
2022/08/07 14:04:09;;;;;;;;;;;25.20;47.50;;;;;;5093557;28;19974;-67
2022/08/07 14:06:36;;;;;;;;;;;25.00;47.70;;;;;;5095099;28;20723;-68
2022/08/07 14:09:03;;;;;;;;;;;24.90;48.30;;;;;;5097545;28;20373;-68
2022/08/07 14:11:29;;;;;;;;;;;25.00;47.00;;;;;;5093175;28;19912;-67
2022/08/07 14:14:01;;;;;;;;;;;25.00;47.00;;;;;;5089711;28;19918;-68
2022/08/07 14:16:30;;;;;;;;;;;25.00;46.60;;;;;;5091178;28;19959;-67
2022/08/07 14:18:56;;;;;;;;;;;25.10;46.70;;;;;;5094470;28;19921;-67
2022/08/07 14:21:39;;;;;;;;;;;25.10;46.70;;;;;;5091491;28;19935;-67
2022/08/07 14:24:11;;;;;;;;;;;25.20;46.70;;;;;;5103520;28;19920;-68
2022/08/07 14:26:43;;;;;;;;;;;25.30;45.80;;;;;;5090580;28;20015;-67
2022/08/07 14:29:10;;;;;;;;;;;25.40;45.30;;;;;;5097652;28;20054;-67
2022/08/07 14:31:36;;;;;;;;;;;25.30;45.20;;;;;;5092605;28;19912;-67
2022/08/07 14:34:02;;;;;;;;;;;25.30;44.50;;;;;;5084866;28;19919;-67
2022/08/07 14:36:31;;;;;;;;;;;25.30;44.20;;;;;;5091380;28;19912;-66
2022/08/07 14:39:00;;;;;;;;;;;25.40;44.30;;;;;;5098765;28;20711;-66